createdAt,value
2023-11-21T00:00:12.965Z,95385.06
2023-11-21T00:02:59.376Z,95379.88
2023-11-21T00:05:46.273Z,95375.50
2023-11-21T00:08:32.800Z,95375.81
2023-11-21T00:11:19.985Z,95374.69
2023-11-21T00:14:06.446Z,95380.19
2023-11-21T00:16:53.103Z,95388.50
2023-11-21T00:19:39.605Z,95383.44
2023-11-21T00:22:29.998Z,95381.84
2023-11-21T00:25:16.956Z,95381.47
2023-11-21T00:28:04.581Z,95375.31
2023-11-21T00:30:51.021Z,95384.72
2023-11-21T00:33:39.158Z,95385.38
2023-11-21T00:36:27.120Z,95390.59
2023-11-21T00:39:14.222Z,95385.22
2023-11-21T00:42:00.322Z,95398.41
2023-11-21T00:44:47.597Z,95391.56
2023-11-21T00:47:34.448Z,95393.81
2023-11-21T00:50:21.291Z,95391.88
2023-11-21T00:53:08.479Z,95400.16
2023-11-21T00:55:58.303Z,95394.63
2023-11-21T00:58:47.710Z,95400.13
2023-11-21T01:01:34.035Z,95401.75
2023-11-21T01:04:20.372Z,95407.78
2023-11-21T01:07:32.476Z,95407.13
2023-11-21T01:10:19.022Z,95409.88
2023-11-21T01:13:06.778Z,95408.41
2023-11-21T01:15:52.829Z,95410.66
2023-11-21T01:18:39.817Z,95409.19
2023-11-21T01:21:26.761Z,95413.41
2023-11-21T01:24:14.416Z,95410.31
2023-11-21T01:27:00.567Z,95412.91
2023-11-21T01:29:47.504Z,95407.06
2023-11-21T01:32:34.049Z,95406.09
2023-11-21T01:35:20.664Z,95404.13
2023-11-21T01:38:09.154Z,95402.19
2023-11-21T01:40:56.274Z,95402.50
2023-11-21T01:43:42.787Z,95400.75
2023-11-21T01:46:30.514Z,95399.00
2023-11-21T01:49:16.950Z,95401.13
2023-11-21T01:52:06.190Z,95402.09
2023-11-21T01:54:53.059Z,95406.34
2023-11-21T01:57:40.524Z,95405.19
2023-11-21T02:00:29.613Z,95394.78
2023-11-21T02:03:16.640Z,95408.78
2023-11-21T02:06:03.054Z,95403.22
2023-11-21T02:08:50.758Z,95403.91
2023-11-21T02:11:37.033Z,95404.09
2023-11-21T02:14:23.486Z,95404.59
2023-11-21T02:17:10.022Z,95412.38
2023-11-21T02:19:57.512Z,95412.69
2023-11-21T02:22:45.181Z,95411.41
2023-11-21T02:25:35.351Z,95410.41
2023-11-21T02:28:27.437Z,95413.69
2023-11-21T02:31:18.084Z,95414.00
2023-11-21T02:34:06.874Z,95415.31
2023-11-21T02:36:53.209Z,95415.00
2023-11-21T02:39:39.526Z,95413.69
2023-11-21T02:42:26.654Z,95416.94
2023-11-21T02:45:15.839Z,95422.16
2023-11-21T02:48:01.722Z,95417.59
2023-11-21T02:50:48.342Z,95428.78
2023-11-21T02:53:35.219Z,95420.34
2023-11-21T02:56:21.729Z,95426.03
2023-11-21T02:59:08.130Z,95424.75
2023-11-21T03:01:54.793Z,95429.13
2023-11-21T03:04:41.468Z,95418.41
2023-11-21T03:07:27.601Z,95422.63
2023-11-21T03:10:14.936Z,95418.22
2023-11-21T03:13:01.118Z,95424.75
2023-11-21T03:15:47.290Z,95432.72
2023-11-21T03:18:33.809Z,95422.13
2023-11-21T03:21:20.829Z,95419.22
2023-11-21T03:24:08.757Z,95420.34
2023-11-21T03:26:56.326Z,95417.25
2023-11-21T03:29:42.986Z,95420.50
2023-11-21T03:32:29.908Z,95420.19
2023-11-21T03:35:16.157Z,95425.53
2023-11-21T03:38:03.363Z,95420.84
2023-11-21T03:40:50.232Z,95423.75
2023-11-21T03:43:37.887Z,95428.47
2023-11-21T03:46:24.963Z,95433.84
2023-11-21T03:49:13.168Z,95430.91
2023-11-21T03:52:01.734Z,95436.25
2023-11-21T03:54:48.462Z,95432.38
2023-11-21T03:57:34.271Z,95436.44
2023-11-21T04:00:21.789Z,95445.19
2023-11-21T04:03:08.053Z,95442.78
2023-11-21T04:05:54.672Z,95438.88
2023-11-21T04:08:40.530Z,95434.94
2023-11-21T04:11:27.674Z,95432.53
2023-11-21T04:14:14.670Z,95430.75
2023-11-21T04:17:00.926Z,95439.66
2023-11-21T04:19:47.686Z,95436.94
2023-11-21T04:22:34.700Z,95439.06
2023-11-21T04:25:21.092Z,95443.13
2023-11-21T04:28:08.580Z,95453.03
2023-11-21T04:30:54.767Z,95450.09
2023-11-21T04:33:41.624Z,95458.38
2023-11-21T04:36:28.036Z,95463.59
2023-11-21T04:39:14.265Z,95456.59
2023-11-21T04:42:00.286Z,95460.50
2023-11-21T04:44:47.671Z,95457.59
2023-11-21T04:47:34.160Z,95457.53
2023-11-21T04:50:21.499Z,95464.06
2023-11-21T04:53:07.552Z,95469.75
2023-11-21T04:55:54.615Z,95469.25
2023-11-21T04:58:41.185Z,95471.19
2023-11-21T05:01:29.196Z,95473.13
2023-11-21T05:04:16.023Z,95470.41
2023-11-21T05:07:02.588Z,95478.69
2023-11-21T05:09:48.667Z,95478.38
2023-11-21T05:12:38.835Z,95482.25
2023-11-21T05:15:25.237Z,95481.47
2023-11-21T05:18:12.642Z,95480.63
2023-11-21T05:20:59.512Z,95490.22
2023-11-21T05:23:46.463Z,95482.75
2023-11-21T05:26:32.804Z,95485.16
2023-11-21T05:29:20.793Z,95497.84
2023-11-21T05:32:07.135Z,95490.56
2023-11-21T05:34:54.144Z,95490.06
2023-11-21T05:37:41.143Z,95494.00
2023-11-21T05:40:31.625Z,95490.56
2023-11-21T05:43:17.967Z,95487.97
2023-11-21T05:46:05.249Z,95496.25
2023-11-21T05:48:51.776Z,95488.63
2023-11-21T05:51:40.260Z,95489.59
2023-11-21T05:54:27.160Z,95496.25
2023-11-21T05:57:14.034Z,95497.38
2023-11-21T06:00:00.689Z,95499.66
2023-11-21T06:02:57.143Z,95500.78
2023-11-21T06:05:43.545Z,95497.84
2023-11-21T06:08:30.155Z,95501.41
2023-11-21T06:11:17.617Z,95500.44
2023-11-21T06:14:04.368Z,95499.31
2023-11-21T06:16:52.354Z,95509.41
2023-11-21T06:19:38.567Z,95518.97
2023-11-21T06:22:24.812Z,95521.91
2023-11-21T06:25:12.373Z,95526.78
2023-11-21T06:27:58.903Z,95527.31
2023-11-21T06:30:46.932Z,95528.09
2023-11-21T06:33:33.595Z,95526.31
2023-11-21T06:36:20.154Z,95533.50
2023-11-21T06:40:22.698Z,95539.34
2023-11-21T06:43:09.515Z,95545.66
2023-11-21T06:45:55.764Z,95539.50
2023-11-21T06:48:44.942Z,95542.94
2023-11-21T06:51:31.198Z,95551.41
2023-11-21T06:54:18.404Z,95547.63
2023-11-21T06:57:04.926Z,95544.03
2023-11-21T06:59:51.742Z,95550.22
2023-11-21T07:02:37.968Z,95547.78
2023-11-21T07:05:25.220Z,95557.03
2023-11-21T07:08:11.765Z,95562.22
2023-11-21T07:10:58.518Z,95564.03
2023-11-21T07:13:44.973Z,95567.78
2023-11-21T07:16:32.087Z,95569.72
2023-11-21T07:19:18.179Z,95572.00
2023-11-21T07:22:04.667Z,95571.34
2023-11-21T07:24:53.009Z,95579.31
2023-11-21T07:27:39.923Z,95576.72
2023-11-21T07:30:26.109Z,95578.47
2023-11-21T07:33:14.087Z,95576.53
2023-11-21T07:36:00.728Z,95585.97
2023-11-21T07:38:48.188Z,95595.22
2023-11-21T07:41:34.776Z,95588.69
2023-11-21T07:44:21.726Z,95592.59
2023-11-21T07:47:08.277Z,95595.69
2023-11-21T07:49:57.262Z,95599.59
2023-11-21T07:52:43.710Z,95605.78
2023-11-21T07:55:33.808Z,95609.84
2023-11-21T07:58:20.753Z,95612.66
2023-11-21T08:01:08.058Z,95600.44
2023-11-21T08:03:54.166Z,95607.59
2023-11-21T08:06:42.908Z,95606.13
2023-11-21T08:09:29.447Z,95604.97
2023-11-21T08:12:16.396Z,95617.16
2023-11-21T08:15:04.460Z,95615.53
2023-11-21T08:17:51.812Z,95611.13
2023-11-21T08:20:39.813Z,95618.78
2023-11-21T08:23:30.098Z,95617.97
2023-11-21T08:26:22.923Z,95619.91
2023-11-21T08:29:08.922Z,95618.47
2023-11-21T08:31:55.465Z,95622.03
2023-11-21T08:34:46.126Z,95619.59
2023-11-21T08:37:38.442Z,95622.34
2023-11-21T08:40:25.022Z,95622.03
2023-11-21T08:43:13.193Z,95626.44
2023-11-21T08:46:01.303Z,95624.59
2023-11-21T08:48:47.560Z,95624.59
2023-11-21T09:09:18.911Z,95646.47
2023-11-21T09:12:06.353Z,95646.63
2023-11-21T09:14:52.458Z,95660.47
2023-11-21T09:17:40.127Z,95663.19
2023-11-21T09:20:26.504Z,95655.25
2023-11-21T09:23:13.974Z,95658.63
2023-11-21T09:26:02.133Z,95663.16
2023-11-21T09:28:49.576Z,95665.25
2023-11-21T09:31:36.754Z,95660.22
2023-11-21T09:34:23.964Z,95666.88
2023-11-21T09:37:10.834Z,95666.53
2023-11-21T09:39:57.891Z,95665.50
2023-11-21T09:42:53.878Z,95672.34
2023-11-21T09:45:41.669Z,95678.19
2023-11-21T09:48:28.594Z,95674.63
2023-11-21T09:51:17.484Z,95676.94
2023-11-21T09:54:07.468Z,95673.88
2023-11-21T09:56:54.244Z,95671.06
2023-11-21T09:59:41.760Z,95686.00
2023-11-21T10:02:36.433Z,95675.53
2023-11-21T10:05:25.457Z,95681.50
2023-11-21T10:08:14.254Z,95686.19
2023-11-21T10:11:00.969Z,95686.06
2023-11-21T10:13:49.388Z,95687.16
2023-11-21T10:16:35.856Z,95683.00
2023-11-21T10:19:22.948Z,95687.53
2023-11-21T10:22:10.009Z,95679.56
2023-11-21T10:24:56.707Z,95688.66
2023-11-21T10:27:44.298Z,95684.25
2023-11-21T10:30:38.470Z,95689.06
2023-11-21T10:33:31.025Z,95689.25
2023-11-21T10:36:28.564Z,95683.22
2023-11-21T10:39:19.385Z,95682.44
2023-11-21T10:42:10.128Z,95688.44
2023-11-21T10:44:57.437Z,95688.25
2023-11-21T10:47:46.038Z,95692.75
2023-11-21T10:50:34.307Z,95689.88
2023-11-21T10:53:23.404Z,95692.16
2023-11-21T10:56:18.610Z,95691.38
2023-11-21T10:59:05.369Z,95694.59
2023-11-21T11:01:53.706Z,95696.09
2023-11-21T11:04:42.108Z,95704.38
2023-11-21T11:07:29.374Z,95700.13
2023-11-21T11:10:17.127Z,95710.28
2023-11-21T11:13:03.713Z,95718.09
2023-11-21T11:15:52.988Z,95713.06
2023-11-21T11:18:40.204Z,95718.38
2023-11-21T11:21:50.813Z,95716.44
2023-11-21T11:24:49.241Z,95714.47
2023-11-21T11:27:49.453Z,95714.63
2023-11-21T11:30:54.204Z,95717.53
2023-11-21T11:33:46.902Z,95713.97
2023-11-21T11:36:45.148Z,95715.41
2023-11-21T11:39:37.881Z,95717.50
2023-11-21T11:42:24.962Z,95722.69
2023-11-21T11:45:21.324Z,95714.44
2023-11-21T11:48:07.505Z,95710.53
2023-11-21T11:51:10.442Z,95717.06
2023-11-21T11:53:56.487Z,95720.13
2023-11-21T11:56:43.374Z,95719.31
2023-11-21T11:59:29.466Z,95720.13
2023-11-21T12:02:16.921Z,95720.63
2023-11-21T12:05:10.590Z,95722.28
2023-11-21T12:07:59.224Z,95721.97
2023-11-21T12:10:45.634Z,95725.72
2023-11-21T12:13:33.439Z,95731.09
2023-11-21T12:16:22.478Z,95732.06
2023-11-21T12:19:09.022Z,95732.66
2023-11-21T12:21:57.104Z,95740.09
2023-11-21T12:24:44.099Z,95753.13
2023-11-21T12:27:29.908Z,95755.34
2023-11-21T12:30:18.977Z,95755.50
2023-11-21T12:33:08.209Z,95756.94
2023-11-21T12:35:55.474Z,95765.09
2023-11-21T12:38:43.309Z,95767.69
2023-11-21T12:41:30.748Z,95761.94
2023-11-21T12:44:17.720Z,95758.97
2023-11-21T12:47:05.264Z,95774.91
2023-11-21T12:49:51.902Z,95777.78
2023-11-21T12:52:40.991Z,95775.34
2023-11-21T12:55:27.290Z,95769.88
2023-11-21T12:58:14.622Z,95780.47
2023-11-21T13:01:00.855Z,95782.94
2023-11-21T13:03:52.784Z,95785.09
2023-11-21T13:06:42.226Z,95791.06
2023-11-21T13:09:29.587Z,95783.50
2023-11-21T13:12:19.236Z,95784.06
2023-11-21T13:15:09.082Z,95792.72
2023-11-21T13:17:57.221Z,95786.22
2023-11-21T13:20:44.361Z,95793.00
2023-11-21T13:23:35.481Z,95791.16
2023-11-21T13:26:24.205Z,95797.31
2023-11-21T13:29:10.141Z,95800.72
2023-11-21T13:31:57.311Z,95796.13
2023-11-21T13:34:46.234Z,95801.84
2023-11-21T13:37:33.949Z,95804.59
2023-11-21T13:40:26.789Z,95805.72
2023-11-21T13:43:15.067Z,95814.22
2023-11-21T13:46:14.230Z,95813.38
2023-11-21T13:49:02.264Z,95824.47
2023-11-21T13:51:53.302Z,95819.53
2023-11-21T13:54:40.317Z,95819.25
2023-11-21T13:57:26.614Z,95829.03
2023-11-21T14:00:34.118Z,95828.28
2023-11-21T14:03:23.340Z,95842.78
2023-11-21T14:06:15.876Z,95840.88
2023-11-21T14:09:06.427Z,95837.25
2023-11-21T14:11:57.829Z,95840.47
2023-11-21T14:14:45.666Z,95844.41
2023-11-21T14:17:32.673Z,95857.66
2023-11-21T14:20:22.126Z,95850.50
2023-11-21T14:23:09.641Z,95851.44
2023-11-21T14:25:55.895Z,95850.22
2023-11-21T14:28:43.922Z,95851.53
2023-11-21T14:31:31.805Z,95856.22
2023-11-21T14:34:21.616Z,95856.03
2023-11-21T14:37:09.983Z,95869.19
2023-11-21T14:39:56.899Z,95866.19
2023-11-21T14:42:44.223Z,95868.13
2023-11-21T14:45:31.552Z,95876.19
2023-11-21T14:48:30.202Z,95881.53
2023-11-21T14:51:17.667Z,95874.59
2023-11-21T14:54:11.186Z,95882.63
2023-11-21T14:56:58.176Z,95888.91
2023-11-21T14:59:51.980Z,95888.19
2023-11-21T15:02:50.985Z,95891.91
2023-11-21T15:05:39.790Z,95897.59
2023-11-21T15:08:33.909Z,95892.44
2023-11-21T15:11:23.456Z,95908.56
2023-11-21T15:14:11.495Z,95906.13
2023-11-21T15:17:01.160Z,95914.84
2023-11-21T15:19:47.340Z,95930.75
2023-11-21T15:22:33.689Z,95924.75
2023-11-21T15:25:20.688Z,95939.44
2023-11-21T15:28:07.778Z,95942.56
2023-11-21T15:30:54.738Z,95948.69
2023-11-21T15:33:44.270Z,95956.16
2023-11-21T15:36:31.313Z,95967.84
2023-11-21T15:39:17.746Z,95966.25
2023-11-21T15:42:05.666Z,95971.59
2023-11-21T15:44:52.477Z,95980.84
2023-11-21T15:47:39.607Z,95984.41
2023-11-21T15:50:27.529Z,95983.00
2023-11-21T15:53:14.197Z,95991.63
2023-11-21T15:56:00.596Z,95994.59
2023-11-21T15:58:50.673Z,95996.13
2023-11-21T16:01:43.129Z,96001.84
2023-11-21T16:04:29.917Z,96004.25
2023-11-21T16:07:17.576Z,96011.03
2023-11-21T16:10:09.130Z,96015.72
2023-11-21T16:12:55.847Z,96022.78
2023-11-21T16:15:46.127Z,96027.97
2023-11-21T16:18:33.512Z,96026.19
2023-11-21T16:21:21.553Z,96029.59
2023-11-21T16:24:08.071Z,96027.66
2023-11-21T16:26:56.199Z,96035.53
2023-11-21T16:29:46.846Z,96035.97
2023-11-21T16:32:35.709Z,96038.63
2023-11-21T16:35:25.926Z,96058.59
2023-11-21T16:38:14.695Z,96061.97
2023-11-21T16:41:07.088Z,96062.97
2023-11-21T16:43:53.419Z,96060.91
2023-11-21T16:46:40.767Z,96068.81
2023-11-21T16:49:29.968Z,96072.56
2023-11-21T16:52:16.867Z,96073.91
2023-11-21T16:55:04.399Z,96073.41
2023-11-21T16:57:53.126Z,96078.44
2023-11-21T17:00:39.961Z,96070.94
2023-11-21T17:03:27.732Z,96081.31
2023-11-21T17:06:15.052Z,96077.78
2023-11-21T17:09:02.289Z,96071.44
2023-11-21T17:11:50.653Z,96084.56
2023-11-21T17:14:37.015Z,96082.78
2023-11-21T17:17:24.305Z,96088.28
2023-11-21T17:20:12.211Z,96085.59
2023-11-21T17:22:58.941Z,96090.16
2023-11-21T17:25:45.302Z,96091.94
2023-11-21T17:28:32.379Z,96098.72
2023-11-21T17:31:19.884Z,96097.31
2023-11-21T17:34:11.336Z,96100.78
2023-11-21T17:36:57.891Z,96113.88
2023-11-21T17:39:46.457Z,96107.78
2023-11-21T17:42:32.402Z,96105.63
2023-11-21T17:45:20.803Z,96118.22
2023-11-21T17:48:08.427Z,96116.78
2023-11-21T17:50:55.714Z,96126.25
2023-11-21T17:53:44.910Z,96137.06
2023-11-21T17:56:35.399Z,96140.44
2023-11-21T17:59:27.976Z,96139.03
2023-11-21T18:02:14.584Z,96133.66
2023-11-21T18:05:06.423Z,96127.19
2023-11-21T18:07:53.832Z,96124.75
2023-11-21T18:10:40.043Z,96139.91
2023-11-21T18:13:27.491Z,96145.19
2023-11-21T18:16:15.612Z,96147.44
2023-11-21T18:19:02.117Z,96149.28
2023-11-21T18:21:48.608Z,96157.41
2023-11-21T18:24:48.730Z,96160.66
2023-11-21T18:27:36.473Z,96159.97
2023-11-21T18:30:23.056Z,96169.25
2023-11-21T18:33:09.421Z,96168.81
2023-11-21T18:35:56.238Z,96181.72
2023-11-21T18:38:42.375Z,96182.91
2023-11-21T18:41:31.711Z,96189.22
2023-11-21T18:44:17.741Z,96189.13
2023-11-21T18:47:05.375Z,96200.59
2023-11-21T18:49:51.684Z,96205.09
2023-11-21T18:52:38.705Z,96199.44
2023-11-21T18:55:25.439Z,96204.13
2023-11-21T18:58:12.389Z,96210.81
2023-11-21T19:00:58.471Z,96209.31
2023-11-21T19:03:45.646Z,96206.25
2023-11-21T19:06:34.290Z,96206.03
2023-11-21T19:09:20.710Z,96215.16
2023-11-21T19:12:07.419Z,96222.91
2023-11-21T19:14:54.120Z,96228.91
2023-11-21T19:17:40.714Z,96226.69
2023-11-21T19:20:27.451Z,96227.72
2023-11-21T19:23:13.897Z,96231.75
2023-11-21T19:26:01.506Z,96236.78
2023-11-21T19:28:53.845Z,96239.38
2023-11-21T19:31:50.351Z,96249.34
2023-11-21T19:34:36.805Z,96251.00
2023-11-21T19:37:23.874Z,96247.56
2023-11-21T19:40:10.791Z,96253.44
2023-11-21T19:42:58.204Z,96255.56
2023-11-21T19:45:44.552Z,96263.91
2023-11-21T19:48:31.998Z,96262.84
2023-11-21T19:51:19.354Z,96278.31
2023-11-21T19:54:07.640Z,96285.97
2023-11-21T19:56:54.217Z,96288.53
2023-11-21T19:59:44.592Z,96286.66
2023-11-21T20:02:30.989Z,96290.59
2023-11-21T20:05:19.285Z,96297.59
2023-11-21T20:08:05.996Z,96296.19
2023-11-21T20:10:55.537Z,96301.97
2023-11-21T20:13:42.116Z,96304.28
2023-11-21T20:16:29.115Z,96309.09
2023-11-21T20:19:15.602Z,96309.63
2023-11-21T20:22:03.017Z,96304.09
2023-11-21T20:24:49.156Z,96315.63
2023-11-21T20:27:36.235Z,96318.88
2023-11-21T20:30:23.988Z,96324.38
2023-11-21T20:33:11.098Z,96318.53
2023-11-21T20:35:57.490Z,96320.69
2023-11-21T20:38:44.667Z,96323.31
2023-11-21T20:41:31.095Z,96321.31
2023-11-21T20:44:18.623Z,96324.22
2023-11-21T20:47:10.784Z,96322.22
2023-11-21T20:50:01.282Z,96328.06
2023-11-21T20:52:47.496Z,96330.81
2023-11-21T20:55:34.372Z,96334.97
2023-11-21T20:58:21.360Z,96334.38
2023-11-21T21:01:08.508Z,96339.91
2023-11-21T21:03:55.067Z,96334.53
2023-11-21T21:06:41.889Z,96340.75
2023-11-21T21:09:28.349Z,96345.94
2023-11-21T21:12:15.482Z,96345.59
2023-11-21T21:15:01.322Z,96346.59
2023-11-21T21:17:48.343Z,96355.63
2023-11-21T21:20:35.411Z,96351.97
2023-11-21T21:23:22.928Z,96358.28
2023-11-21T21:26:10.794Z,96352.78
2023-11-21T21:28:58.518Z,96360.31
2023-11-21T21:31:44.574Z,96352.13
2023-11-21T21:34:31.005Z,96358.00
2023-11-21T21:37:17.849Z,96361.50
2023-11-21T21:40:04.260Z,96366.44
2023-11-21T21:42:50.415Z,96365.34
2023-11-21T21:45:39.033Z,96373.44
2023-11-21T21:48:25.694Z,96377.66
2023-11-21T21:51:17.437Z,96379.31
2023-11-21T21:54:04.085Z,96382.16
2023-11-21T21:56:51.834Z,96388.19
2023-11-21T21:59:39.308Z,96393.78
2023-11-21T22:02:26.373Z,96400.09
2023-11-21T22:05:13.709Z,96394.00
2023-11-21T22:08:00.381Z,96384.47
2023-11-21T22:10:46.409Z,96390.94
2023-11-21T22:13:34.362Z,96392.53
2023-11-21T22:16:22.336Z,96396.38
2023-11-21T22:19:08.706Z,96407.00
2023-11-21T22:21:55.152Z,96400.94
2023-11-21T22:24:42.377Z,96396.00
2023-11-21T22:27:30.091Z,96390.09
2023-11-21T22:30:16.943Z,96386.72
2023-11-21T22:33:03.091Z,96388.09
2023-11-21T22:35:50.563Z,96396.50
2023-11-21T22:38:36.695Z,96407.41
2023-11-21T22:41:27.484Z,96396.78
2023-11-21T22:44:13.985Z,96412.16
2023-11-21T22:47:03.066Z,96405.88
2023-11-21T22:49:49.271Z,96414.53
2023-11-21T22:52:35.740Z,96415.38
2023-11-21T22:55:21.759Z,96417.94
2023-11-21T22:58:08.761Z,96416.81
2023-11-21T23:00:58.811Z,96429.81
2023-11-21T23:03:49.845Z,96426.50
2023-11-21T23:06:36.356Z,96425.47
2023-11-21T23:09:23.632Z,96423.63
2023-11-21T23:12:10.235Z,96423.00
2023-11-21T23:14:57.380Z,96427.19
2023-11-21T23:17:43.772Z,96439.31
2023-11-21T23:20:32.257Z,96444.31
2023-11-21T23:23:18.872Z,96451.31
2023-11-21T23:26:06.648Z,96450.88
2023-11-21T23:28:52.943Z,96459.94
2023-11-21T23:31:39.854Z,96445.44
2023-11-21T23:34:26.625Z,96454.97
2023-11-21T23:37:13.598Z,96453.53
2023-11-21T23:40:00.463Z,96448.00
2023-11-21T23:42:47.040Z,96463.78
2023-11-21T23:45:34.614Z,96464.94
2023-11-21T23:48:22.121Z,96472.34
2023-11-21T23:51:08.104Z,96470.69
2023-11-21T23:53:55.595Z,96470.91
2023-11-21T23:56:41.600Z,96474.34
2023-11-21T23:59:28.996Z,96467.75
